Current Conditions
Clear
Conditions



Pressure
1016.92 (mb) - 30.03 (inHG)
Visibility

6.2 (miles) - 10.0 (km)
   Temperature
16  °C
61°F
6  °C
Dewpoint
52  %
 Humidity
   Wind Speed
3  mph
3  kts
5  km/h
1.3  m/s
   Wind Direction
 320°
North West
   Airport Data
EGTK
Location Oxford (Kidlington) Airport 26 mi (41.83 km)
Metar :EGTK 031950Z 32003KT CAVOK 16/06 Q1017
Mon 3rd August 20:50 pm
   Raw Metar Info
Raw METAR is the most common format in the world for the transmission of observational weather data. It is highly standardized through the International Civil Aviation Organization (ICAO), which allows it to be understood throughout most of the world.
   API Info
Data Provided by
https://www.checkwx.com/weather/EGTK
   © Info
CSS/SVG/PHP scripts were developed by weather34.com for use in the weather34 template © 2015-2020

Guide Info provided by Metar-Wikipedia